sensor_id;sensor_type;location;lat;lon;timestamp;pressure;altitude;pressure_sealevel;temperature;humidity
48527;BME280;34317;51.660;5.824;2023-11-19T00:01:10;100819.81;;;16.44;71.39
48527;BME280;34317;51.660;5.824;2023-11-19T00:03:37;100812.56;;;16.46;71.38
48527;BME280;34317;51.660;5.824;2023-11-19T00:06:05;100808.91;;;16.47;71.28
48527;BME280;34317;51.660;5.824;2023-11-19T00:08:35;100806.13;;;16.49;71.25
48527;BME280;34317;51.660;5.824;2023-11-19T00:11:04;100807.81;;;16.50;71.32
48527;BME280;34317;51.660;5.824;2023-11-19T00:13:32;100801.44;;;16.52;71.25
48527;BME280;34317;51.660;5.824;2023-11-19T00:15:59;100802.28;;;16.53;71.03
48527;BME280;34317;51.660;5.824;2023-11-19T00:18:27;100797.78;;;16.53;71.28
48527;BME280;34317;51.660;5.824;2023-11-19T00:20:54;100790.50;;;16.55;71.26
48527;BME280;34317;51.660;5.824;2023-11-19T00:23:21;100792.22;;;16.57;71.07
48527;BME280;34317;51.660;5.824;2023-11-19T00:25:48;100784.94;;;16.59;71.10
48527;BME280;34317;51.660;5.824;2023-11-19T00:28:15;100768.91;;;16.59;71.10
48527;BME280;34317;51.660;5.824;2023-11-19T00:30:43;100766.13;;;16.60;70.93
48527;BME280;34317;51.660;5.824;2023-11-19T00:33:10;100769.63;;;16.61;71.29
48527;BME280;34317;51.660;5.824;2023-11-19T00:35:38;100772.31;;;16.61;71.18
48527;BME280;34317;51.660;5.824;2023-11-19T00:38:05;100766.97;;;16.61;71.08
48527;BME280;34317;51.660;5.824;2023-11-19T00:40:32;100772.09;;;16.64;71.04
48527;BME280;34317;51.660;5.824;2023-11-19T00:42:59;100770.38;;;16.63;70.97
48527;BME280;34317;51.660;5.824;2023-11-19T00:45:27;100768.44;;;16.65;70.86
48527;BME280;34317;51.660;5.824;2023-11-19T00:47:55;100764.81;;;16.66;70.83
48527;BME280;34317;51.660;5.824;2023-11-19T00:50:22;100771.00;;;16.66;71.06
48527;BME280;34317;51.660;5.824;2023-11-19T00:52:50;100778.94;;;16.68;70.90
48527;BME280;34317;51.660;5.824;2023-11-19T00:55:18;100753.91;;;16.69;71.00
48527;BME280;34317;51.660;5.824;2023-11-19T00:57:45;100760.97;;;16.70;70.68
48527;BME280;34317;51.660;5.824;2023-11-19T01:00:13;100761.81;;;16.70;70.60
48527;BME280;34317;51.660;5.824;2023-11-19T01:02:47;100757.34;;;16.71;70.87
48527;BME280;34317;51.660;5.824;2023-11-19T01:05:18;100762.53;;;16.72;70.70
48527;BME280;34317;51.660;5.824;2023-11-19T01:07:49;100766.09;;;16.73;70.77
48527;BME280;34317;51.660;5.824;2023-11-19T01:10:17;100787.38;;;16.74;70.67
48527;BME280;34317;51.660;5.824;2023-11-19T01:12:46;100769.50;;;16.75;70.59
48527;BME280;34317;51.660;5.824;2023-11-19T01:15:13;100766.72;;;16.77;70.65
48527;BME280;34317;51.660;5.824;2023-11-19T01:17:40;100769.28;;;16.78;70.56
48527;BME280;34317;51.660;5.824;2023-11-19T01:20:19;100769.28;;;16.78;70.34
48527;BME280;34317;51.660;5.824;2023-11-19T01:22:48;100760.28;;;16.79;70.39
48527;BME280;34317;51.660;5.824;2023-11-19T01:25:17;100754.94;;;16.79;70.39
48527;BME280;34317;51.660;5.824;2023-11-19T01:27:44;100760.13;;;16.82;70.23
48527;BME280;34317;51.660;5.824;2023-11-19T01:30:12;100769.06;;;16.81;70.39
48527;BME280;34317;51.660;5.824;2023-11-19T01:32:42;100752.16;;;16.81;70.24
48527;BME280;34317;51.660;5.824;2023-11-19T01:35:09;100754.75;;;16.82;70.21
48527;BME280;34317;51.660;5.824;2023-11-19T01:37:36;100749.41;;;16.82;70.18
48527;BME280;34317;51.660;5.824;2023-11-19T01:40:04;100735.06;;;16.83;70.00
48527;BME280;34317;51.660;5.824;2023-11-19T01:42:40;100732.38;;;16.83;70.02
48527;BME280;34317;51.660;5.824;2023-11-19T01:45:08;100730.56;;;16.84;69.86
48527;BME280;34317;51.660;5.824;2023-11-19T01:47:36;100736.78;;;16.84;69.86
48527;BME280;34317;51.660;5.824;2023-11-19T01:50:06;100739.47;;;16.84;69.93
48527;BME280;34317;51.660;5.824;2023-11-19T01:52:34;100745.75;;;16.83;69.69
48527;BME280;34317;51.660;5.824;2023-11-19T01:55:07;100740.41;;;16.83;69.92
48527;BME280;34317;51.660;5.824;2023-11-19T01:57:37;100733.38;;;16.82;69.69
48527;BME280;34317;51.660;5.824;2023-11-19T02:00:07;100741.38;;;16.82;69.74
48527;BME280;34317;51.660;5.824;2023-11-19T02:02:43;100738.72;;;16.82;69.60
48527;BME280;34317;51.660;5.824;2023-11-19T02:05:12;100730.69;;;16.82;69.60
48527;BME280;34317;51.660;5.824;2023-11-19T02:07:40;100733.38;;;16.82;69.40
48527;BME280;34317;51.660;5.824;2023-11-19T02:10:07;100734.28;;;16.81;69.53
48527;BME280;34317;51.660;5.824;2023-11-19T02:12:41;100731.63;;;16.81;69.49
48527;BME280;34317;51.660;5.824;2023-11-19T02:15:12;100729.91;;;16.80;69.29
48527;BME280;34317;51.660;5.824;2023-11-19T02:17:39;100719.44;;;16.77;69.18
48527;BME280;34317;51.660;5.824;2023-11-19T02:20:07;100724.03;;;16.75;69.42
48527;BME280;34317;51.660;5.824;2023-11-19T02:22:38;100729.50;;;16.73;69.29
48527;BME280;34317;51.660;5.824;2023-11-19T02:25:07;100726.94;;;16.72;69.04
48527;BME280;34317;51.660;5.824;2023-11-19T02:27:48;100729.72;;;16.70;69.10
48527;BME280;34317;51.660;5.824;2023-11-19T02:30:18;100732.53;;;16.69;69.00
48527;BME280;34317;51.660;5.824;2023-11-19T02:32:45;100734.44;;;16.67;68.72
48527;BME280;34317;51.660;5.824;2023-11-19T02:35:13;100735.41;;;16.66;68.87
48527;BME280;34317;51.660;5.824;2023-11-19T02:37:40;100722.25;;;16.63;68.51
48527;BME280;34317;51.660;5.824;2023-11-19T02:40:08;100722.25;;;16.63;68.86
48527;BME280;34317;51.660;5.824;2023-11-19T02:42:37;100718.00;;;16.60;68.87
48527;BME280;34317;51.660;5.824;2023-11-19T02:45:04;100709.13;;;16.60;68.58
48527;BME280;34317;51.660;5.824;2023-11-19T02:47:34;100719.81;;;16.60;68.72
48527;BME280;34317;51.660;5.824;2023-11-19T02:50:01;100722.50;;;16.60;68.74
48527;BME280;34317;51.660;5.824;2023-11-19T02:52:29;100724.41;;;16.58;68.50
48527;BME280;34317;51.660;5.824;2023-11-19T02:54:56;100712.00;;;16.57;68.57
48527;BME280;34317;51.660;5.824;2023-11-19T02:57:24;100742.38;;;16.55;68.53
48527;BME280;34317;51.660;5.824;2023-11-19T02:59:52;100720.13;;;16.55;68.39
48527;BME280;34317;51.660;5.824;2023-11-19T03:02:19;100724.63;;;16.54;68.41
48527;BME280;34317;51.660;5.824;2023-11-19T03:04:46;100720.97;;;16.55;68.17
48527;BME280;34317;51.660;5.824;2023-11-19T03:07:14;100724.63;;;16.54;68.04
48527;BME280;34317;51.660;5.824;2023-11-19T03:09:41;100724.63;;;16.54;67.85
48527;BME280;34317;51.660;5.824;2023-11-19T03:12:08;100731.66;;;16.55;67.92
48527;BME280;34317;51.660;5.824;2023-11-19T03:14:35;100729.13;;;16.54;67.81
48527;BME280;34317;51.660;5.824;2023-11-19T03:17:03;100730.94;;;16.53;67.57
48527;BME280;34317;51.660;5.824;2023-11-19T03:19:32;100728.25;;;16.53;67.55
48527;BME280;34317;51.660;5.824;2023-11-19T03:22:01;100721.44;;;16.49;67.77
48527;BME280;34317;51.660;5.824;2023-11-19T03:24:29;100724.09;;;16.49;67.37
48527;BME280;34317;51.660;5.824;2023-11-19T03:26:56;100716.31;;;16.46;67.39
48527;BME280;34317;51.660;5.824;2023-11-19T03:29:23;100732.34;;;16.46;67.25
48527;BME280;34317;51.660;5.824;2023-11-19T03:31:50;100736.19;;;16.42;67.01
48527;BME280;34317;51.660;5.824;2023-11-19T03:34:17;100731.09;;;16.39;66.99
48527;BME280;34317;51.660;5.824;2023-11-19T03:36:45;100713.56;;;16.35;66.87
48527;BME280;34317;51.660;5.824;2023-11-19T03:39:13;100721.03;;;16.30;66.88
48527;BME280;34317;51.660;5.824;2023-11-19T03:41:40;100717.84;;;16.25;66.89
48527;BME280;34317;51.660;5.824;2023-11-19T03:44:08;100721.69;;;16.21;66.88
48527;BME280;34317;51.660;5.824;2023-11-19T03:46:35;100721.16;;;16.15;66.63
48527;BME280;34317;51.660;5.824;2023-11-19T03:49:03;100720.63;;;16.10;66.63
48527;BME280;34317;51.660;5.824;2023-11-19T03:51:33;100721.78;;;16.06;66.63
48527;BME280;34317;51.660;5.824;2023-11-19T03:54:02;100710.59;;;16.01;66.69
48527;BME280;34317;51.660;5.824;2023-11-19T03:56:29;100703.97;;;15.94;66.45
48527;BME280;34317;51.660;5.824;2023-11-19T03:58:58;100703.44;;;15.89;66.39
48527;BME280;34317;51.660;5.824;2023-11-19T04:01:25;100715.28;;;15.85;66.62
48527;BME280;34317;51.660;5.824;2023-11-19T04:03:52;100718.41;;;15.79;66.59
48527;BME280;34317;51.660;5.824;2023-11-19T04:06:19;100721.25;;;15.75;66.66
48527;BME280;34317;51.660;5.824;2023-11-19T04:08:46;100715.19;;;15.73;66.56
48527;BME280;34317;51.660;5.824;2023-11-19T04:11:14;100716.31;;;15.69;66.54
48527;BME280;34317;51.660;5.824;2023-11-19T04:13:41;100719.19;;;15.66;66.37
48527;BME280;34317;51.660;5.824;2023-11-19T04:16:08;100727.41;;;15.63;66.24
48527;BME280;34317;51.660;5.824;2023-11-19T04:18:36;100727.63;;;15.60;66.33
48527;BME280;34317;51.660;5.824;2023-11-19T04:21:06;100737.56;;;15.58;66.40
48527;BME280;34317;51.660;5.824;2023-11-19T04:23:33;100724.41;;;15.55;66.18
48527;BME280;34317;51.660;5.824;2023-11-19T04:26:04;100730.81;;;15.52;66.21
48527;BME280;34317;51.660;5.824;2023-11-19T04:28:34;100726.53;;;15.50;66.24
48527;BME280;34317;51.660;5.824;2023-11-19T04:31:01;100732.94;;;15.47;66.18
48527;BME280;34317;51.660;5.824;2023-11-19T04:33:30;100738.38;;;15.46;66.11
48527;BME280;34317;51.660;5.824;2023-11-19T04:35:57;100742.97;;;15.44;66.13
48527;BME280;34317;51.660;5.824;2023-11-19T04:38:25;100752.13;;;15.40;66.24
48527;BME280;34317;51.660;5.824;2023-11-19T04:40:53;100762.81;;;15.40;66.15
48527;BME280;34317;51.660;5.824;2023-11-19T04:43:21;100757.66;;;15.36;66.26
48527;BME280;34317;51.660;5.824;2023-11-19T04:45:48;100756.91;;;15.34;66.08
48527;BME280;34317;51.660;5.824;2023-11-19T04:48:15;100758.84;;;15.32;66.24
48527;BME280;34317;51.660;5.824;2023-11-19T04:50:42;100748.25;;;15.31;66.19
48527;BME280;34317;51.660;5.824;2023-11-19T04:53:09;100747.41;;;15.30;66.20
48527;BME280;34317;51.660;5.824;2023-11-19T04:55:37;100749.31;;;15.28;66.05
48527;BME280;34317;51.660;5.824;2023-11-19T04:58:04;100745.91;;;15.26;66.06
48527;BME280;34317;51.660;5.824;2023-11-19T05:00:32;100747.81;;;15.24;66.11
48527;BME280;34317;51.660;5.824;2023-11-19T05:02:59;100749.53;;;15.25;65.92
48527;BME280;34317;51.660;5.824;2023-11-19T05:05:26;100753.16;;;15.24;66.11
48527;BME280;34317;51.660;5.824;2023-11-19T05:07:54;100751.44;;;15.23;66.22
48527;BME280;34317;51.660;5.824;2023-11-19T05:10:22;100752.28;;;15.24;65.71
48527;BME280;34317;51.660;5.824;2023-11-19T05:12:49;100753.34;;;15.21;65.78
48527;BME280;34317;51.660;5.824;2023-11-19T05:15:17;100756.78;;;15.23;65.79
48527;BME280;34317;51.660;5.824;2023-11-19T05:17:44;100755.06;;;15.22;65.71
48527;BME280;34317;51.660;5.824;2023-11-19T05:20:12;100753.34;;;15.21;65.66
48527;BME280;34317;51.660;5.824;2023-11-19T05:22:43;100762.34;;;15.20;65.63
48527;BME280;34317;51.660;5.824;2023-11-19T05:25:10;100760.59;;;15.19;65.58
48527;BME280;34317;51.660;5.824;2023-11-19T05:27:38;100757.19;;;15.17;65.55
48527;BME280;34317;51.660;5.824;2023-11-19T05:30:06;100750.13;;;15.16;65.83
48527;BME280;34317;51.660;5.824;2023-11-19T05:32:34;100743.09;;;15.15;65.60
48527;BME280;34317;51.660;5.824;2023-11-19T05:35:02;100755.47;;;15.16;65.49
48527;BME280;34317;51.660;5.824;2023-11-19T05:37:30;100748.44;;;15.15;65.48
48527;BME280;34317;51.660;5.824;2023-11-19T05:39:57;100757.38;;;15.14;65.50
48527;BME280;34317;51.660;5.824;2023-11-19T05:42:24;100750.34;;;15.13;65.43
48527;BME280;34317;51.660;5.824;2023-11-19T05:44:51;100743.28;;;15.12;65.35
48527;BME280;34317;51.660;5.824;2023-11-19T05:47:19;100753.09;;;15.11;65.39
48527;BME280;34317;51.660;5.824;2023-11-19T05:49:46;100755.03;;;15.09;65.47
48527;BME280;34317;51.660;5.824;2023-11-19T05:52:13;100763.13;;;15.08;65.31
48527;BME280;34317;51.660;5.824;2023-11-19T05:54:40;100768.63;;;15.05;65.29
48527;BME280;34317;51.660;5.824;2023-11-19T05:57:08;100769.63;;;15.04;65.38
48527;BME280;34317;51.660;5.824;2023-11-19T05:59:36;100766.94;;;15.04;65.36
48527;BME280;34317;51.660;5.824;2023-11-19T06:02:03;100770.56;;;15.03;65.31
48527;BME280;34317;51.660;5.824;2023-11-19T06:04:31;100768.88;;;15.02;65.45
48527;BME280;34317;51.660;5.824;2023-11-19T06:06:58;100769.72;;;15.02;65.31
48527;BME280;34317;51.660;5.824;2023-11-19T06:09:25;100775.13;;;15.01;65.26
48527;BME280;34317;51.660;5.824;2023-11-19T06:11:52;100776.13;;;14.99;65.24
48527;BME280;34317;51.660;5.824;2023-11-19T06:14:20;100770.78;;;14.99;65.29
48527;BME280;34317;51.660;5.824;2023-11-19T06:16:47;100769.03;;;14.98;65.26
48527;BME280;34317;51.660;5.824;2023-11-19T06:19:14;100771.81;;;14.97;65.26
48527;BME280;34317;51.660;5.824;2023-11-19T06:21:41;100769.22;;;14.95;65.10
48527;BME280;34317;51.660;5.824;2023-11-19T06:24:08;100778.22;;;14.94;65.03
48527;BME280;34317;51.660;5.824;2023-11-19T06:26:36;100764.97;;;14.93;64.98
48527;BME280;34317;51.660;5.824;2023-11-19T06:29:03;100759.63;;;14.93;65.05
48527;BME280;34317;51.660;5.824;2023-11-19T06:31:30;100764.97;;;14.93;64.96
48527;BME280;34317;51.660;5.824;2023-11-19T06:33:57;100768.59;;;14.92;64.98
48527;BME280;34317;51.660;5.824;2023-11-19T06:36:25;100766.03;;;14.90;64.83
48527;BME280;34317;51.660;5.824;2023-11-19T06:38:53;100771.56;;;14.87;64.94
48527;BME280;34317;51.660;5.824;2023-11-19T06:41:20;100769.84;;;14.86;64.86
48527;BME280;34317;51.660;5.824;2023-11-19T06:43:48;100766.41;;;14.84;64.71
48527;BME280;34317;51.660;5.824;2023-11-19T06:46:16;100766.63;;;14.81;64.77
48527;BME280;34317;51.660;5.824;2023-11-19T06:48:44;100764.91;;;14.80;65.08
48527;BME280;34317;51.660;5.824;2023-11-19T06:51:12;100763.28;;;14.77;64.96
48527;BME280;34317;51.660;5.824;2023-11-19T06:53:39;100755.28;;;14.77;65.09
48527;BME280;34317;51.660;5.824;2023-11-19T06:56:20;100761.69;;;14.75;65.01
48527;BME280;34317;51.660;5.824;2023-11-19T06:58:49;100783.00;;;14.75;65.08
48527;BME280;34317;51.660;5.824;2023-11-19T07:01:17;100775.97;;;14.74;65.19
48527;BME280;34317;51.660;5.824;2023-11-19T07:03:45;100784.91;;;14.73;65.29
48527;BME280;34317;51.660;5.824;2023-11-19T07:06:16;100793.88;;;14.72;65.26
48527;BME280;34317;51.660;5.824;2023-11-19T07:08:44;100798.34;;;14.71;65.10
48527;BME280;34317;51.660;5.824;2023-11-19T07:11:14;100809.84;;;14.72;65.16
48527;BME280;34317;51.660;5.824;2023-11-19T07:13:43;100813.47;;;14.71;65.18
48527;BME280;34317;51.660;5.824;2023-11-19T07:16:14;100804.72;;;14.69;65.09
48527;BME280;34317;51.660;5.824;2023-11-19T07:18:41;100816.25;;;14.69;65.16
48527;BME280;34317;51.660;5.824;2023-11-19T07:21:10;100816.34;;;14.68;65.07
48527;BME280;34317;51.660;5.824;2023-11-19T07:23:38;100811.94;;;14.67;65.26
48527;BME280;34317;51.660;5.824;2023-11-19T07:26:06;100816.44;;;14.66;65.06
48527;BME280;34317;51.660;5.824;2023-11-19T07:28:35;100817.28;;;14.67;65.08
48527;BME280;34317;51.660;5.824;2023-11-19T07:31:02;100827.94;;;14.67;65.09
48527;BME280;34317;51.660;5.824;2023-11-19T07:33:30;100822.63;;;14.67;65.20
48527;BME280;34317;51.660;5.824;2023-11-19T07:35:57;100826.25;;;14.66;65.37
48527;BME280;34317;51.660;5.824;2023-11-19T07:38:24;100818.13;;;14.67;65.27
48527;BME280;34317;51.660;5.824;2023-11-19T07:40:51;100833.09;;;14.70;65.10
48527;BME280;34317;51.660;5.824;2023-11-19T07:43:21;100832.25;;;14.69;65.12
48527;BME280;34317;51.660;5.824;2023-11-19T07:45:48;100835.75;;;14.70;65.08
48527;BME280;34317;51.660;5.824;2023-11-19T07:48:16;100844.59;;;14.70;65.14
48527;BME280;34317;51.660;5.824;2023-11-19T07:50:45;100843.53;;;14.73;65.15
48527;BME280;34317;51.660;5.824;2023-11-19T07:53:12;100832.88;;;14.73;65.04
48527;BME280;34317;51.660;5.824;2023-11-19T07:55:40;100843.53;;;14.73;65.08
48527;BME280;34317;51.660;5.824;2023-11-19T07:58:09;100839.94;;;14.74;64.99
48527;BME280;34317;51.660;5.824;2023-11-19T08:00:37;100834.63;;;14.74;65.13
48527;BME280;34317;51.660;5.824;2023-11-19T08:03:04;100830.03;;;14.76;64.91
48527;BME280;34317;51.660;5.824;2023-11-19T08:05:32;100832.69;;;14.76;65.02
48527;BME280;34317;51.660;5.824;2023-11-19T08:07:59;100833.47;;;14.78;64.82
48527;BME280;34317;51.660;5.824;2023-11-19T08:10:26;100835.09;;;14.81;64.82
48527;BME280;34317;51.660;5.824;2023-11-19T08:12:54;100835.94;;;14.81;64.94
48527;BME280;34317;51.660;5.824;2023-11-19T08:15:21;100839.38;;;14.83;64.93
48527;BME280;34317;51.660;5.824;2023-11-19T08:17:51;100841.06;;;14.84;64.81
48527;BME280;34317;51.660;5.824;2023-11-19T08:20:18;100844.53;;;14.86;64.75
48527;BME280;34317;51.660;5.824;2023-11-19T08:22:46;100848.88;;;14.87;64.87
48527;BME280;34317;51.660;5.824;2023-11-19T08:25:13;100849.63;;;14.89;64.90
48527;BME280;34317;51.660;5.824;2023-11-19T08:27:40;100844.13;;;14.92;64.81
48527;BME280;34317;51.660;5.824;2023-11-19T08:30:08;100858.03;;;14.97;64.99
48527;BME280;34317;51.660;5.824;2023-11-19T08:32:35;100839.16;;;15.01;64.91
48527;BME280;34317;51.660;5.824;2023-11-19T08:35:03;100843.31;;;15.05;64.69
48527;BME280;34317;51.660;5.824;2023-11-19T08:37:30;100837.81;;;15.08;64.71
48527;BME280;34317;51.660;5.824;2023-11-19T08:39:58;100846.56;;;15.10;64.71
48527;BME280;34317;51.660;5.824;2023-11-19T08:42:25;100842.75;;;15.14;64.57
48527;BME280;34317;51.660;5.824;2023-11-19T08:44:52;100848.84;;;15.16;64.69
48527;BME280;34317;51.660;5.824;2023-11-19T08:47:21;100841.59;;;15.18;64.64
48527;BME280;34317;51.660;5.824;2023-11-19T08:49:53;100847.50;;;15.23;64.56
48527;BME280;34317;51.660;5.824;2023-11-19T08:52:23;100851.78;;;15.26;64.74
48527;BME280;34317;51.660;5.824;2023-11-19T08:54:50;100856.72;;;15.32;64.71
48527;BME280;34317;51.660;5.824;2023-11-19T08:57:17;100859.97;;;15.37;64.44
48527;BME280;34317;51.660;5.824;2023-11-19T08:59:44;100846.31;;;15.42;64.58
48527;BME280;34317;51.660;5.824;2023-11-19T09:02:13;100854.13;;;15.45;64.40
48527;BME280;34317;51.660;5.824;2023-11-19T09:04:40;100859.13;;;15.49;64.31
48527;BME280;34317;51.660;5.824;2023-11-19T09:07:08;100867.06;;;15.51;64.46
48527;BME280;34317;51.660;5.824;2023-11-19T09:09:36;100860.66;;;15.53;64.11
48527;BME280;34317;51.660;5.824;2023-11-19T09:12:04;100857.69;;;15.58;64.08
48527;BME280;34317;51.660;5.824;2023-11-19T09:14:31;100862.81;;;15.61;64.04
48527;BME280;34317;51.660;5.824;2023-11-19T09:16:59;100844.88;;;15.63;64.03
48527;BME280;34317;51.660;5.824;2023-11-19T09:19:26;100852.59;;;15.68;64.08
48527;BME280;34317;51.660;5.824;2023-11-19T09:21:54;100862.19;;;15.70;63.88
48527;BME280;34317;51.660;5.824;2023-11-19T09:24:21;100854.03;;;15.73;64.03
48527;BME280;34317;51.660;5.824;2023-11-19T09:26:48;100861.84;;;15.76;63.88
48527;BME280;34317;51.660;5.824;2023-11-19T09:29:15;100858.22;;;15.77;63.93
48527;BME280;34317;51.660;5.824;2023-11-19T09:31:43;100856.28;;;15.80;63.75
48527;BME280;34317;51.660;5.824;2023-11-19T09:34:10;100859.72;;;15.82;63.70
48527;BME280;34317;51.660;5.824;2023-11-19T09:36:38;100866.78;;;15.83;63.43
48527;BME280;34317;51.660;5.824;2023-11-19T09:39:05;100859.50;;;15.85;63.63
48527;BME280;34317;51.660;5.824;2023-11-19T09:41:35;100862.09;;;15.86;63.54
48527;BME280;34317;51.660;5.824;2023-11-19T09:44:02;100857.59;;;15.87;63.52
48527;BME280;34317;51.660;5.824;2023-11-19T09:46:29;100855.66;;;15.89;63.48
48527;BME280;34317;51.660;5.824;2023-11-19T09:48:57;100839.44;;;15.92;63.61
48527;BME280;34317;51.660;5.824;2023-11-19T09:51:26;100853.34;;;15.97;63.49
48527;BME280;34317;51.660;5.824;2023-11-19T09:53:53;100858.47;;;16.00;63.57
48527;BME280;34317;51.660;5.824;2023-11-19T09:56:21;100854.63;;;16.04;63.45
48527;BME280;34317;51.660;5.824;2023-11-19T09:58:49;100849.94;;;16.08;63.50
48527;BME280;34317;51.660;5.824;2023-11-19T10:01:17;100846.97;;;16.12;63.42
48527;BME280;34317;51.660;5.824;2023-11-19T10:03:55;100837.78;;;16.17;63.38
48527;BME280;34317;51.660;5.824;2023-11-19T10:06:24;100845.56;;;16.20;63.33
48527;BME280;34317;51.660;5.824;2023-11-19T10:08:53;100856.81;;;16.25;63.31
48527;BME280;34317;51.660;5.824;2023-11-19T10:11:22;100850.28;;;16.29;63.04
48527;BME280;34317;51.660;5.824;2023-11-19T10:13:49;100838.63;;;16.30;63.21
48527;BME280;34317;51.660;5.824;2023-11-19T10:16:17;100838.41;;;16.33;63.07
48527;BME280;34317;51.660;5.824;2023-11-19T10:18:46;100833.94;;;16.33;62.93
48527;BME280;34317;51.660;5.824;2023-11-19T10:21:13;100825.81;;;16.35;62.87
48527;BME280;34317;51.660;5.824;2023-11-19T10:23:49;100834.34;;;16.40;62.61
48527;BME280;34317;51.660;5.824;2023-11-19T10:26:17;100825.16;;;16.44;62.68
48527;BME280;34317;51.660;5.824;2023-11-19T10:28:46;100822.16;;;16.49;62.68
48527;BME280;34317;51.660;5.824;2023-11-19T10:31:17;100826.22;;;16.54;62.43
48527;BME280;34317;51.660;5.824;2023-11-19T10:33:45;100838.41;;;16.59;62.32
48527;BME280;34317;51.660;5.824;2023-11-19T10:36:13;100836.50;;;16.61;62.22
48527;BME280;34317;51.660;5.824;2023-11-19T10:38:41;100847.81;;;16.64;62.17
48527;BME280;34317;51.660;5.824;2023-11-19T10:41:28;100844.84;;;16.69;62.14
48527;BME280;34317;51.660;5.824;2023-11-19T10:43:55;100833.69;;;16.75;62.28
48527;BME280;34317;51.660;5.824;2023-11-19T10:46:36;100835.41;;;16.76;61.78
48527;BME280;34317;51.660;5.824;2023-11-19T10:49:04;100826.41;;;16.77;61.86
48527;BME280;34317;51.660;5.824;2023-11-19T10:51:33;100822.75;;;16.78;61.77
48527;BME280;34317;51.660;5.824;2023-11-19T10:54:03;100820.88;;;16.80;61.56
48527;BME280;34317;51.660;5.824;2023-11-19T10:56:34;100820.72;;;16.82;61.57
48527;BME280;34317;51.660;5.824;2023-11-19T10:59:02;100820.66;;;16.83;61.48
48527;BME280;34317;51.660;5.824;2023-11-19T11:01:44;100816.78;;;16.87;61.46
48527;BME280;34317;51.660;5.824;2023-11-19T11:04:14;100820.19;;;16.89;61.42
48527;BME280;34317;51.660;5.824;2023-11-19T11:06:44;100802.00;;;16.95;61.59
48527;BME280;34317;51.660;5.824;2023-11-19T11:09:13;100814.19;;;16.99;61.40
48527;BME280;34317;51.660;5.824;2023-11-19T11:11:46;100813.03;;;17.03;61.36
48527;BME280;34317;51.660;5.824;2023-11-19T11:14:14;100808.41;;;17.05;61.42
48527;BME280;34317;51.660;5.824;2023-11-19T11:16:43;100805.59;;;17.06;61.43
48527;BME280;34317;51.660;5.824;2023-11-19T11:19:11;100813.53;;;17.08;61.32
48527;BME280;34317;51.660;5.824;2023-11-19T11:21:41;100806.25;;;17.10;61.12
48527;BME280;34317;51.660;5.824;2023-11-19T11:33:06;100801.63;;;17.12;60.99
48527;BME280;34317;51.660;5.824;2023-11-19T11:36:11;100784.84;;;17.10;60.93
48527;BME280;34317;51.660;5.824;2023-11-19T11:38:41;100785.06;;;17.07;60.93
48527;BME280;34317;51.660;5.824;2023-11-19T11:41:18;100787.00;;;17.05;60.82
48527;BME280;34317;51.660;5.824;2023-11-19T11:43:50;100785.28;;;17.04;60.73
48527;BME280;34317;51.660;5.824;2023-11-19T11:49:06;100796.00;;;17.04;60.71
48527;BME280;34317;51.660;5.824;2023-11-19T11:57:09;100785.28;;;17.04;61.01
48527;BME280;34317;51.660;5.824;2023-11-19T11:59:45;100787.22;;;17.02;60.98
48527;BME280;34317;51.660;5.824;2023-11-19T12:02:15;100794.50;;;17.00;61.05
48527;BME280;34317;51.660;5.824;2023-11-19T12:04:47;100789.16;;;17.00;61.24
48527;BME280;34317;51.660;5.824;2023-11-19T12:07:21;100799.88;;;17.00;61.17
48527;BME280;34317;51.660;5.824;2023-11-19T12:09:54;100784.91;;;16.97;61.12
48527;BME280;34317;51.660;5.824;2023-11-19T12:12:34;100784.13;;;16.95;61.42
48527;BME280;34317;51.660;5.824;2023-11-19T12:15:10;100789.63;;;16.93;61.19
48527;BME280;34317;51.660;5.824;2023-11-19T12:17:41;100773.78;;;16.90;61.07
48527;BME280;34317;51.660;5.824;2023-11-19T12:20:12;100775.91;;;16.85;61.21
48527;BME280;34317;51.660;5.824;2023-11-19T12:22:41;100783.22;;;16.83;61.06
48527;BME280;34317;51.660;5.824;2023-11-19T12:25:10;100773.66;;;16.79;61.26
48527;BME280;34317;51.660;5.824;2023-11-19T12:27:43;100762.22;;;16.77;61.11
48527;BME280;34317;51.660;5.824;2023-11-19T12:30:11;100774.88;;;16.75;61.06
48527;BME280;34317;51.660;5.824;2023-11-19T12:32:43;100776.78;;;16.73;61.08
48527;BME280;34317;51.660;5.824;2023-11-19T12:35:12;100772.41;;;16.72;61.07
48527;BME280;34317;51.660;5.824;2023-11-19T12:37:46;100778.72;;;16.71;60.74
48527;BME280;34317;51.660;5.824;2023-11-19T12:40:18;100786.00;;;16.69;60.90
48527;BME280;34317;51.660;5.824;2023-11-19T12:42:47;100769.97;;;16.69;61.13
48527;BME280;34317;51.660;5.824;2023-11-19T12:45:14;100782.34;;;16.70;61.10
48527;BME280;34317;51.660;5.824;2023-11-19T12:47:43;100784.91;;;16.71;61.13
48527;BME280;34317;51.660;5.824;2023-11-19T12:50:11;100771.19;;;16.76;61.35
48527;BME280;34317;51.660;5.824;2023-11-19T12:52:39;100767.38;;;16.80;60.96
48527;BME280;34317;51.660;5.824;2023-11-19T12:55:38;100766.22;;;16.84;61.11
48527;BME280;34317;51.660;5.824;2023-11-19T12:58:06;100776.56;;;16.89;60.94
48527;BME280;34317;51.660;5.824;2023-11-19T13:00:33;100773.56;;;16.93;60.95
48527;BME280;34317;51.660;5.824;2023-11-19T13:03:00;100772.38;;;16.98;60.85
48527;BME280;34317;51.660;5.824;2023-11-19T13:05:32;100772.25;;;16.99;60.64
48527;BME280;34317;51.660;5.824;2023-11-19T13:08:05;100770.44;;;17.00;60.32
48527;BME280;34317;51.660;5.824;2023-11-19T13:10:49;100771.16;;;17.02;60.41
48527;BME280;34317;51.660;5.824;2023-11-19T13:13:17;100768.50;;;17.02;60.46
48527;BME280;34317;51.660;5.824;2023-11-19T13:15:45;100762.19;;;17.03;60.41